KDCY

Details ICAO KDCY
Name DAVIESS CO
Region United States
Timezone America/Indiana/Vincennes (UTC-4.0)
Plans Departing 0
Arriving 3
Stats Elevation 473 ft / 144 m (AMSL)
Location 38.700425° -87.129728°
Runways 1
Magnetic Variation 3.881° W
Sunrise 2018-05-20 10:33:51 UTC / 2018-05-20 06:33:51 Local
Sunset 2018-05-21 00:59:07 UTC / 2018-05-20 20:59:07 Local
Advertisement - Login to hide

Runways

ID Width Length Bearing (true) Bearing (mag) Surface Threshold Offset Overrun Length
18 75 ft / 23 m 4,630 ft / 1,411 m 180.00° 183.88° Asphalt 315 ft / 96 m 0 ft / 0 m
36 75 ft / 23 m 4,630 ft / 1,411 m 0.00° 3.88° Asphalt 0 ft / 0 m 0 ft / 0 m

Map

Weather


0- 5 10 15 20 25 30 35+ Temperature / ° C

Clouds and Precipitation
Forecast for 2018-05-20 12:00 UTC. Updated 4 hours ago

Ground ~20,000 ft ~40,000 ft Winds

METAR

KDCY 201435Z AUTO 23005KT 10SM OVC110 25/15 A3012 RMK AO2 LTG DSNT SW AND W T02470151

TAF

Not found

Frequencies

Unicom 122.80 MHz CTAF/UNICOM
Approach 125.60 MHz EVANSVILLE APP/DEP
Warning: Do not use this data for real-world aviation or navigation. No guarantee of current accuracy is given.